sensor_id;sensor_type;location;lat;lon;timestamp;P1;durP1;ratioP1;P2;durP2;ratioP2
65234;SDS011;51820;48.374;10.930;2022-11-11T00:00:04;14.60;;;6.55;;
65234;SDS011;51820;48.374;10.930;2022-11-11T00:02:53;13.43;;;6.43;;
65234;SDS011;51820;48.374;10.930;2022-11-11T00:05:40;11.40;;;6.33;;
65234;SDS011;51820;48.374;10.930;2022-11-11T00:08:41;15.68;;;6.68;;
65234;SDS011;51820;48.374;10.930;2022-11-11T00:11:38;14.48;;;6.45;;
65234;SDS011;51820;48.374;10.930;2022-11-11T00:14:27;10.27;;;5.35;;
65234;SDS011;51820;48.374;10.930;2022-11-11T00:17:14;12.40;;;5.55;;
65234;SDS011;51820;48.374;10.930;2022-11-11T00:20:25;11.63;;;5.33;;
65234;SDS011;51820;48.374;10.930;2022-11-11T00:23:30;16.77;;;5.43;;
65234;SDS011;51820;48.374;10.930;2022-11-11T00:26:35;11.30;;;5.20;;
65234;SDS011;51820;48.374;10.930;2022-11-11T00:29:24;11.60;;;5.35;;
65234;SDS011;51820;48.374;10.930;2022-11-11T00:32:12;9.88;;;4.75;;
65234;SDS011;51820;48.374;10.930;2022-11-11T00:35:11;9.40;;;4.63;;
65234;SDS011;51820;48.374;10.930;2022-11-11T00:38:16;10.63;;;4.63;;
65234;SDS011;51820;48.374;10.930;2022-11-11T00:41:18;9.60;;;4.97;;
65234;SDS011;51820;48.374;10.930;2022-11-11T00:44:07;12.85;;;5.60;;
65234;SDS011;51820;48.374;10.930;2022-11-11T00:46:54;10.80;;;5.20;;
65234;SDS011;51820;48.374;10.930;2022-11-11T00:50:01;9.37;;;4.50;;
65234;SDS011;51820;48.374;10.930;2022-11-11T00:53:10;9.82;;;5.03;;
65234;SDS011;51820;48.374;10.930;2022-11-11T00:55:58;10.02;;;4.45;;
65234;SDS011;51820;48.374;10.930;2022-11-11T00:58:45;10.85;;;4.43;;
65234;SDS011;51820;48.374;10.930;2022-11-11T01:01:34;11.02;;;4.40;;
65234;SDS011;51820;48.374;10.930;2022-11-11T01:04:21;10.40;;;4.60;;
65234;SDS011;51820;48.374;10.930;2022-11-11T01:07:09;10.85;;;4.75;;
65234;SDS011;51820;48.374;10.930;2022-11-11T01:09:56;9.77;;;4.90;;
65234;SDS011;51820;48.374;10.930;2022-11-11T01:12:42;10.80;;;5.07;;
65234;SDS011;51820;48.374;10.930;2022-11-11T01:15:31;10.27;;;4.57;;
65234;SDS011;51820;48.374;10.930;2022-11-11T01:18:23;8.20;;;4.70;;
65234;SDS011;51820;48.374;10.930;2022-11-11T01:21:18;10.82;;;5.75;;
65234;SDS011;51820;48.374;10.930;2022-11-11T01:24:07;11.43;;;5.72;;
65234;SDS011;51820;48.374;10.930;2022-11-11T01:26:54;10.63;;;5.00;;
65234;SDS011;51820;48.374;10.930;2022-11-11T01:29:41;12.30;;;5.07;;
65234;SDS011;51820;48.374;10.930;2022-11-11T01:32:28;9.33;;;4.70;;
65234;SDS011;51820;48.374;10.930;2022-11-11T01:35:17;10.23;;;4.55;;
65234;SDS011;51820;48.374;10.930;2022-11-11T01:38:04;10.57;;;4.75;;
65234;SDS011;51820;48.374;10.930;2022-11-11T01:40:52;10.63;;;5.20;;
65234;SDS011;51820;48.374;10.930;2022-11-11T01:43:39;10.07;;;5.18;;
65234;SDS011;51820;48.374;10.930;2022-11-11T01:46:28;11.07;;;4.80;;
65234;SDS011;51820;48.374;10.930;2022-11-11T01:49:20;9.95;;;4.97;;
65234;SDS011;51820;48.374;10.930;2022-11-11T01:52:15;11.70;;;5.30;;
65234;SDS011;51820;48.374;10.930;2022-11-11T01:55:06;11.45;;;5.25;;
65234;SDS011;51820;48.374;10.930;2022-11-11T01:57:56;10.95;;;5.28;;
65234;SDS011;51820;48.374;10.930;2022-11-11T02:00:46;11.13;;;4.77;;
65234;SDS011;51820;48.374;10.930;2022-11-11T02:03:34;11.35;;;5.00;;
65234;SDS011;51820;48.374;10.930;2022-11-11T02:06:25;10.15;;;4.90;;
65234;SDS011;51820;48.374;10.930;2022-11-11T02:09:14;11.50;;;5.45;;
65234;SDS011;51820;48.374;10.930;2022-11-11T02:12:02;11.45;;;5.43;;
65234;SDS011;51820;48.374;10.930;2022-11-11T02:15:11;9.93;;;5.33;;
65234;SDS011;51820;48.374;10.930;2022-11-11T02:17:58;11.90;;;5.22;;
65234;SDS011;51820;48.374;10.930;2022-11-11T02:20:45;12.07;;;5.15;;
65234;SDS011;51820;48.374;10.930;2022-11-11T02:23:33;11.35;;;4.88;;
65234;SDS011;51820;48.374;10.930;2022-11-11T02:26:26;10.60;;;4.80;;
65234;SDS011;51820;48.374;10.930;2022-11-11T02:29:16;9.70;;;4.50;;
65234;SDS011;51820;48.374;10.930;2022-11-11T02:32:05;10.65;;;5.03;;
65234;SDS011;51820;48.374;10.930;2022-11-11T02:34:52;9.20;;;4.50;;
65234;SDS011;51820;48.374;10.930;2022-11-11T02:37:39;8.95;;;4.18;;
65234;SDS011;51820;48.374;10.930;2022-11-11T02:40:30;12.43;;;5.03;;
65234;SDS011;51820;48.374;10.930;2022-11-11T02:43:21;13.67;;;6.37;;
65234;SDS011;51820;48.374;10.930;2022-11-11T02:46:08;10.77;;;5.43;;
65234;SDS011;51820;48.374;10.930;2022-11-11T02:48:56;11.77;;;4.93;;
65234;SDS011;51820;48.374;10.930;2022-11-11T02:51:43;9.82;;;4.75;;
65234;SDS011;51820;48.374;10.930;2022-11-11T02:54:31;11.75;;;4.85;;
65234;SDS011;51820;48.374;10.930;2022-11-11T02:57:18;10.47;;;4.60;;
65234;SDS011;51820;48.374;10.930;2022-11-11T03:00:08;11.45;;;4.88;;
65234;SDS011;51820;48.374;10.930;2022-11-11T03:02:56;11.48;;;4.80;;
65234;SDS011;51820;48.374;10.930;2022-11-11T03:05:43;10.75;;;5.05;;
65234;SDS011;51820;48.374;10.930;2022-11-11T03:08:31;9.48;;;4.68;;
65234;SDS011;51820;48.374;10.930;2022-11-11T03:11:18;9.50;;;4.80;;
65234;SDS011;51820;48.374;10.930;2022-11-11T03:14:12;10.10;;;4.53;;
65234;SDS011;51820;48.374;10.930;2022-11-11T03:17:00;12.15;;;4.30;;
65234;SDS011;51820;48.374;10.930;2022-11-11T03:20:05;10.15;;;4.60;;
65234;SDS011;51820;48.374;10.930;2022-11-11T03:23:11;9.70;;;4.68;;
65234;SDS011;51820;48.374;10.930;2022-11-11T03:25:59;12.40;;;4.97;;
65234;SDS011;51820;48.374;10.930;2022-11-11T03:28:46;11.52;;;5.10;;
65234;SDS011;51820;48.374;10.930;2022-11-11T03:31:34;10.00;;;5.30;;
65234;SDS011;51820;48.374;10.930;2022-11-11T03:34:22;9.85;;;4.78;;
65234;SDS011;51820;48.374;10.930;2022-11-11T03:37:10;8.80;;;4.78;;
65234;SDS011;51820;48.374;10.930;2022-11-11T03:40:14;11.70;;;5.27;;
65234;SDS011;51820;48.374;10.930;2022-11-11T03:43:01;12.32;;;5.20;;
65234;SDS011;51820;48.374;10.930;2022-11-11T03:45:49;13.27;;;5.90;;
65234;SDS011;51820;48.374;10.930;2022-11-11T03:48:36;9.82;;;4.50;;
65234;SDS011;51820;48.374;10.930;2022-11-11T03:51:25;9.05;;;4.50;;
65234;SDS011;51820;48.374;10.930;2022-11-11T03:54:12;9.95;;;4.80;;
65234;SDS011;51820;48.374;10.930;2022-11-11T03:56:59;11.30;;;4.78;;
65234;SDS011;51820;48.374;10.930;2022-11-11T04:00:04;9.80;;;4.75;;
65234;SDS011;51820;48.374;10.930;2022-11-11T04:03:02;11.77;;;5.13;;
65234;SDS011;51820;48.374;10.930;2022-11-11T04:06:09;11.07;;;5.28;;
65234;SDS011;51820;48.374;10.930;2022-11-11T04:09:15;13.33;;;4.83;;
65234;SDS011;51820;48.374;10.930;2022-11-11T04:12:19;13.95;;;5.05;;
65234;SDS011;51820;48.374;10.930;2022-11-11T04:15:07;10.73;;;4.88;;
65234;SDS011;51820;48.374;10.930;2022-11-11T04:18:12;18.67;;;4.63;;
65234;SDS011;51820;48.374;10.930;2022-11-11T04:20:58;8.02;;;4.20;;
65234;SDS011;51820;48.374;10.930;2022-11-11T04:24:03;7.35;;;3.85;;
65234;SDS011;51820;48.374;10.930;2022-11-11T04:27:12;8.00;;;3.75;;
65234;SDS011;51820;48.374;10.930;2022-11-11T04:29:58;15.25;;;4.40;;
65234;SDS011;51820;48.374;10.930;2022-11-11T04:32:45;8.68;;;4.20;;
65234;SDS011;51820;48.374;10.930;2022-11-11T04:35:32;10.82;;;4.25;;
65234;SDS011;51820;48.374;10.930;2022-11-11T04:38:19;8.50;;;3.97;;
65234;SDS011;51820;48.374;10.930;2022-11-11T04:41:23;8.10;;;4.10;;
65234;SDS011;51820;48.374;10.930;2022-11-11T04:44:34;8.45;;;4.00;;
65234;SDS011;51820;48.374;10.930;2022-11-11T04:47:38;8.65;;;4.45;;
65234;SDS011;51820;48.374;10.930;2022-11-11T04:50:39;12.70;;;4.97;;
65234;SDS011;51820;48.374;10.930;2022-11-11T04:53:27;9.30;;;4.97;;
65234;SDS011;51820;48.374;10.930;2022-11-11T04:56:14;9.95;;;4.68;;
65234;SDS011;51820;48.374;10.930;2022-11-11T04:59:19;9.43;;;4.90;;
65234;SDS011;51820;48.374;10.930;2022-11-11T05:02:08;9.05;;;4.90;;
65234;SDS011;51820;48.374;10.930;2022-11-11T05:05:12;14.77;;;4.70;;
65234;SDS011;51820;48.374;10.930;2022-11-11T05:07:59;9.37;;;4.53;;
65234;SDS011;51820;48.374;10.930;2022-11-11T05:11:04;21.15;;;5.50;;
65234;SDS011;51820;48.374;10.930;2022-11-11T05:13:51;10.95;;;4.93;;
65234;SDS011;51820;48.374;10.930;2022-11-11T05:16:57;8.55;;;4.43;;
65234;SDS011;51820;48.374;10.930;2022-11-11T05:20:03;10.82;;;4.60;;
65234;SDS011;51820;48.374;10.930;2022-11-11T05:23:07;9.32;;;4.28;;
65234;SDS011;51820;48.374;10.930;2022-11-11T05:25:54;8.43;;;4.07;;
65234;SDS011;51820;48.374;10.930;2022-11-11T05:28:40;8.45;;;3.85;;
65234;SDS011;51820;48.374;10.930;2022-11-11T05:31:27;11.38;;;4.10;;
65234;SDS011;51820;48.374;10.930;2022-11-11T05:34:15;11.45;;;4.43;;
65234;SDS011;51820;48.374;10.930;2022-11-11T05:37:03;7.70;;;4.07;;
65234;SDS011;51820;48.374;10.930;2022-11-11T05:39:50;8.45;;;4.18;;
65234;SDS011;51820;48.374;10.930;2022-11-11T05:42:39;10.80;;;4.28;;
65234;SDS011;51820;48.374;10.930;2022-11-11T05:45:35;12.73;;;4.07;;
65234;SDS011;51820;48.374;10.930;2022-11-11T05:48:21;29.60;;;4.13;;
65234;SDS011;51820;48.374;10.930;2022-11-11T05:51:08;7.20;;;3.37;;
65234;SDS011;51820;48.374;10.930;2022-11-11T05:54:23;14.35;;;3.30;;
65234;SDS011;51820;48.374;10.930;2022-11-11T05:57:11;8.00;;;3.35;;
65234;SDS011;51820;48.374;10.930;2022-11-11T06:00:02;6.97;;;3.20;;
65234;SDS011;51820;48.374;10.930;2022-11-11T06:02:50;6.53;;;3.40;;
65234;SDS011;51820;48.374;10.930;2022-11-11T06:05:37;6.77;;;3.10;;
65234;SDS011;51820;48.374;10.930;2022-11-11T06:08:38;7.50;;;3.47;;
65234;SDS011;51820;48.374;10.930;2022-11-11T06:15:18;7.10;;;3.50;;
65234;SDS011;51820;48.374;10.930;2022-11-11T06:18:16;9.52;;;3.80;;
65234;SDS011;51820;48.374;10.930;2022-11-11T06:21:12;8.20;;;3.77;;
65234;SDS011;51820;48.374;10.930;2022-11-11T06:24:01;8.13;;;4.05;;
65234;SDS011;51820;48.374;10.930;2022-11-11T06:27:11;8.63;;;3.53;;
65234;SDS011;51820;48.374;10.930;2022-11-11T06:30:19;8.23;;;4.03;;
65234;SDS011;51820;48.374;10.930;2022-11-11T06:33:32;8.88;;;3.63;;
65234;SDS011;51820;48.374;10.930;2022-11-11T06:36:26;8.33;;;3.90;;
65234;SDS011;51820;48.374;10.930;2022-11-11T06:39:13;9.48;;;3.70;;
65234;SDS011;51820;48.374;10.930;2022-11-11T06:42:00;7.90;;;4.00;;
65234;SDS011;51820;48.374;10.930;2022-11-11T06:44:48;7.57;;;3.97;;
65234;SDS011;51820;48.374;10.930;2022-11-11T06:47:35;7.75;;;3.83;;
65234;SDS011;51820;48.374;10.930;2022-11-11T06:50:22;10.93;;;3.60;;
65234;SDS011;51820;48.374;10.930;2022-11-11T06:53:09;8.48;;;4.00;;
65234;SDS011;51820;48.374;10.930;2022-11-11T06:55:57;9.38;;;4.80;;
65234;SDS011;51820;48.374;10.930;2022-11-11T06:58:44;24.70;;;9.00;;
65234;SDS011;51820;48.374;10.930;2022-11-11T07:01:32;14.98;;;6.35;;
65234;SDS011;51820;48.374;10.930;2022-11-11T07:04:19;14.82;;;5.72;;
65234;SDS011;51820;48.374;10.930;2022-11-11T07:07:06;10.15;;;5.13;;
65234;SDS011;51820;48.374;10.930;2022-11-11T07:09:53;10.50;;;4.97;;
65234;SDS011;51820;48.374;10.930;2022-11-11T07:12:40;12.32;;;4.80;;
65234;SDS011;51820;48.374;10.930;2022-11-11T07:15:39;14.93;;;5.07;;
65234;SDS011;51820;48.374;10.930;2022-11-11T07:18:32;26.13;;;5.90;;
65234;SDS011;51820;48.374;10.930;2022-11-11T07:21:22;18.33;;;6.38;;
65234;SDS011;51820;48.374;10.930;2022-11-11T07:24:17;25.90;;;7.05;;
65234;SDS011;51820;48.374;10.930;2022-11-11T07:31:23;26.85;;;8.55;;
65234;SDS011;51820;48.374;10.930;2022-11-11T07:34:11;31.45;;;8.10;;
65234;SDS011;51820;48.374;10.930;2022-11-11T07:36:58;19.55;;;7.07;;
65234;SDS011;51820;48.374;10.930;2022-11-11T07:39:47;22.48;;;7.07;;
65234;SDS011;51820;48.374;10.930;2022-11-11T07:42:34;21.33;;;6.85;;
65234;SDS011;51820;48.374;10.930;2022-11-11T07:45:21;20.58;;;6.88;;
65234;SDS011;51820;48.374;10.930;2022-11-11T07:48:08;22.63;;;7.03;;
65234;SDS011;51820;48.374;10.930;2022-11-11T07:50:59;19.40;;;6.60;;
65234;SDS011;51820;48.374;10.930;2022-11-11T07:53:54;18.67;;;7.07;;
65234;SDS011;51820;48.374;10.930;2022-11-11T07:56:41;24.98;;;7.90;;
65234;SDS011;51820;48.374;10.930;2022-11-11T07:59:30;21.00;;;7.65;;
65234;SDS011;51820;48.374;10.930;2022-11-11T08:02:17;25.00;;;7.32;;
65234;SDS011;51820;48.374;10.930;2022-11-11T08:05:05;21.70;;;8.05;;
65234;SDS011;51820;48.374;10.930;2022-11-11T08:07:53;22.90;;;7.35;;
65234;SDS011;51820;48.374;10.930;2022-11-11T08:10:40;24.85;;;7.53;;
65234;SDS011;51820;48.374;10.930;2022-11-11T08:13:28;19.98;;;8.40;;
65234;SDS011;51820;48.374;10.930;2022-11-11T08:16:25;21.53;;;7.30;;
65234;SDS011;51820;48.374;10.930;2022-11-11T08:19:13;17.17;;;7.45;;
65234;SDS011;51820;48.374;10.930;2022-11-11T08:22:03;18.67;;;8.95;;
65234;SDS011;51820;48.374;10.930;2022-11-11T08:24:54;12.05;;;6.18;;
65234;SDS011;51820;48.374;10.930;2022-11-11T08:27:59;15.52;;;6.45;;
65234;SDS011;51820;48.374;10.930;2022-11-11T08:30:48;16.60;;;5.60;;
65234;SDS011;51820;48.374;10.930;2022-11-11T08:33:38;21.20;;;5.80;;
65234;SDS011;51820;48.374;10.930;2022-11-11T08:36:27;10.75;;;4.75;;
65234;SDS011;51820;48.374;10.930;2022-11-11T08:39:15;9.43;;;4.78;;
65234;SDS011;51820;48.374;10.930;2022-11-11T08:42:04;12.48;;;4.82;;
65234;SDS011;51820;48.374;10.930;2022-11-11T08:44:57;9.27;;;4.60;;
65234;SDS011;51820;48.374;10.930;2022-11-11T08:47:47;9.95;;;4.18;;
65234;SDS011;51820;48.374;10.930;2022-11-11T08:50:38;11.90;;;5.05;;
65234;SDS011;51820;48.374;10.930;2022-11-11T08:53:26;9.43;;;4.93;;
65234;SDS011;51820;48.374;10.930;2022-11-11T08:56:21;12.73;;;5.53;;
65234;SDS011;51820;48.374;10.930;2022-11-11T08:59:10;10.17;;;4.87;;
65234;SDS011;51820;48.374;10.930;2022-11-11T09:02:14;11.90;;;5.53;;
65234;SDS011;51820;48.374;10.930;2022-11-11T09:05:02;11.32;;;4.88;;
65234;SDS011;51820;48.374;10.930;2022-11-11T09:07:53;12.30;;;4.80;;
65234;SDS011;51820;48.374;10.930;2022-11-11T09:10:45;14.40;;;4.88;;
65234;SDS011;51820;48.374;10.930;2022-11-11T09:14:03;17.43;;;5.00;;
65234;SDS011;51820;48.374;10.930;2022-11-11T09:17:09;12.00;;;4.47;;
65234;SDS011;51820;48.374;10.930;2022-11-11T09:20:27;11.48;;;5.30;;
65234;SDS011;51820;48.374;10.930;2022-11-11T09:23:17;10.32;;;4.55;;
65234;SDS011;51820;48.374;10.930;2022-11-11T09:26:19;8.35;;;3.80;;
65234;SDS011;51820;48.374;10.930;2022-11-11T09:29:06;10.20;;;3.90;;
65234;SDS011;51820;48.374;10.930;2022-11-11T09:31:53;9.15;;;3.92;;
65234;SDS011;51820;48.374;10.930;2022-11-11T09:34:43;10.20;;;4.30;;
65234;SDS011;51820;48.374;10.930;2022-11-11T09:37:30;8.70;;;3.70;;
65234;SDS011;51820;48.374;10.930;2022-11-11T09:40:18;10.20;;;3.88;;
65234;SDS011;51820;48.374;10.930;2022-11-11T09:43:09;10.07;;;4.20;;
65234;SDS011;51820;48.374;10.930;2022-11-11T09:46:11;8.85;;;3.63;;
65234;SDS011;51820;48.374;10.930;2022-11-11T09:49:14;9.73;;;4.00;;
65234;SDS011;51820;48.374;10.930;2022-11-11T09:52:24;10.32;;;3.97;;
65234;SDS011;51820;48.374;10.930;2022-11-11T09:55:19;9.25;;;3.90;;
65234;SDS011;51820;48.374;10.930;2022-11-11T09:58:11;11.03;;;4.10;;
65234;SDS011;51820;48.374;10.930;2022-11-11T10:01:05;7.97;;;3.95;;
65234;SDS011;51820;48.374;10.930;2022-11-11T10:03:58;10.98;;;4.60;;
65234;SDS011;51820;48.374;10.930;2022-11-11T10:06:55;11.65;;;4.70;;
65234;SDS011;51820;48.374;10.930;2022-11-11T10:09:50;8.98;;;4.40;;
65234;SDS011;51820;48.374;10.930;2022-11-11T10:12:46;10.30;;;4.57;;
65234;SDS011;51820;48.374;10.930;2022-11-11T10:15:39;12.85;;;4.70;;
65234;SDS011;51820;48.374;10.930;2022-11-11T10:18:34;9.88;;;5.10;;
65234;SDS011;51820;48.374;10.930;2022-11-11T10:21:35;9.38;;;4.65;;
65234;SDS011;51820;48.374;10.930;2022-11-11T10:24:47;8.88;;;4.85;;
65234;SDS011;51820;48.374;10.930;2022-11-11T10:27:39;8.50;;;4.87;;
65234;SDS011;51820;48.374;10.930;2022-11-11T10:30:28;10.45;;;4.57;;
65234;SDS011;51820;48.374;10.930;2022-11-11T10:33:18;8.88;;;4.78;;
65234;SDS011;51820;48.374;10.930;2022-11-11T10:36:13;9.07;;;4.90;;
65234;SDS011;51820;48.374;10.930;2022-11-11T10:39:03;9.50;;;4.70;;
65234;SDS011;51820;48.374;10.930;2022-11-11T10:41:51;9.70;;;4.07;;
65234;SDS011;51820;48.374;10.930;2022-11-11T10:44:38;8.10;;;4.30;;
65234;SDS011;51820;48.374;10.930;2022-11-11T10:47:28;8.63;;;4.22;;
65234;SDS011;51820;48.374;10.930;2022-11-11T10:50:28;9.18;;;4.63;;
65234;SDS011;51820;48.374;10.930;2022-11-11T10:53:21;10.48;;;5.45;;
65234;SDS011;51820;48.374;10.930;2022-11-11T10:56:18;11.73;;;5.50;;
65234;SDS011;51820;48.374;10.930;2022-11-11T10:59:15;11.50;;;6.00;;
65234;SDS011;51820;48.374;10.930;2022-11-11T11:02:11;12.07;;;6.53;;
65234;SDS011;51820;48.374;10.930;2022-11-11T11:05:05;11.35;;;5.80;;
65234;SDS011;51820;48.374;10.930;2022-11-11T11:08:01;12.98;;;6.68;;
65234;SDS011;51820;48.374;10.930;2022-11-11T11:10:54;12.67;;;6.00;;
65234;SDS011;51820;48.374;10.930;2022-11-11T11:13:44;12.25;;;5.60;;
65234;SDS011;51820;48.374;10.930;2022-11-11T11:16:36;12.07;;;5.50;;
65234;SDS011;51820;48.374;10.930;2022-11-11T11:19:31;9.85;;;5.30;;
65234;SDS011;51820;48.374;10.930;2022-11-11T11:22:18;11.98;;;5.05;;
65234;SDS011;51820;48.374;10.930;2022-11-11T11:25:10;8.80;;;5.00;;
65234;SDS011;51820;48.374;10.930;2022-11-11T11:28:05;9.95;;;5.15;;
65234;SDS011;51820;48.374;10.930;2022-11-11T11:30:57;10.43;;;5.20;;
65234;SDS011;51820;48.374;10.930;2022-11-11T11:33:52;10.32;;;4.97;;
65234;SDS011;51820;48.374;10.930;2022-11-11T11:36:40;10.85;;;5.63;;
65234;SDS011;51820;48.374;10.930;2022-11-11T11:39:32;9.43;;;4.90;;
65234;SDS011;51820;48.374;10.930;2022-11-11T11:45:36;8.88;;;5.05;;
65234;SDS011;51820;48.374;10.930;2022-11-11T11:52:40;10.80;;;5.00;;
65234;SDS011;51820;48.374;10.930;2022-11-11T11:55:37;11.03;;;5.03;;
65234;SDS011;51820;48.374;10.930;2022-11-11T11:58:33;10.77;;;4.93;;
65234;SDS011;51820;48.374;10.930;2022-11-11T12:01:34;9.07;;;4.68;;
65234;SDS011;51820;48.374;10.930;2022-11-11T12:04:44;8.50;;;4.60;;
65234;SDS011;51820;48.374;10.930;2022-11-11T12:07:51;11.07;;;4.95;;
65234;SDS011;51820;48.374;10.930;2022-11-11T12:11:03;8.37;;;5.33;;
65234;SDS011;51820;48.374;10.930;2022-11-11T12:14:05;8.90;;;4.97;;
65234;SDS011;51820;48.374;10.930;2022-11-11T12:17:25;12.68;;;5.22;;
65234;SDS011;51820;48.374;10.930;2022-11-11T12:20:24;11.60;;;5.53;;
65234;SDS011;51820;48.374;10.930;2022-11-11T12:23:27;10.50;;;5.40;;
65234;SDS011;51820;48.374;10.930;2022-11-11T12:26:24;11.07;;;5.27;;
65234;SDS011;51820;48.374;10.930;2022-11-11T12:29:28;9.93;;;5.20;;
65234;SDS011;51820;48.374;10.930;2022-11-11T12:32:33;12.55;;;5.03;;
65234;SDS011;51820;48.374;10.930;2022-11-11T12:35:56;10.73;;;5.90;;
65234;SDS011;51820;48.374;10.930;2022-11-11T12:38:56;8.75;;;5.47;;
65234;SDS011;51820;48.374;10.930;2022-11-11T12:41:51;10.97;;;4.93;;
65234;SDS011;51820;48.374;10.930;2022-11-11T12:44:50;10.50;;;5.25;;
65234;SDS011;51820;48.374;10.930;2022-11-11T12:47:42;10.15;;;4.95;;
65234;SDS011;51820;48.374;10.930;2022-11-11T12:50:43;10.13;;;5.45;;
65234;SDS011;51820;48.374;10.930;2022-11-11T12:53:38;10.13;;;5.38;;
65234;SDS011;51820;48.374;10.930;2022-11-11T12:56:35;9.80;;;5.37;;
65234;SDS011;51820;48.374;10.930;2022-11-11T12:59:39;8.85;;;5.10;;
65234;SDS011;51820;48.374;10.930;2022-11-11T13:06:12;11.45;;;6.00;;
65234;SDS011;51820;48.374;10.930;2022-11-11T13:09:21;9.60;;;5.30;;
65234;SDS011;51820;48.374;10.930;2022-11-11T13:12:33;9.13;;;5.67;;
65234;SDS011;51820;48.374;10.930;2022-11-11T13:15:29;11.98;;;6.00;;
65234;SDS011;51820;48.374;10.930;2022-11-11T13:18:23;8.75;;;5.35;;
65234;SDS011;51820;48.374;10.930;2022-11-11T13:21:14;10.68;;;5.85;;
65234;SDS011;51820;48.374;10.930;2022-11-11T13:24:05;13.88;;;5.40;;
65234;SDS011;51820;48.374;10.930;2022-11-11T13:26:59;9.90;;;5.83;;
65234;SDS011;51820;48.374;10.930;2022-11-11T13:30:03;9.60;;;6.10;;
65234;SDS011;51820;48.374;10.930;2022-11-11T13:33:14;12.85;;;4.95;;
65234;SDS011;51820;48.374;10.930;2022-11-11T13:36:12;11.30;;;6.18;;
65234;SDS011;51820;48.374;10.930;2022-11-11T13:39:05;10.50;;;6.00;;
65234;SDS011;51820;48.374;10.930;2022-11-11T13:42:47;13.47;;;6.70;;
65234;SDS011;51820;48.374;10.930;2022-11-11T13:45:39;14.27;;;6.78;;
65234;SDS011;51820;48.374;10.930;2022-11-11T13:48:31;12.27;;;7.22;;
65234;SDS011;51820;48.374;10.930;2022-11-11T13:51:24;12.63;;;6.88;;
65234;SDS011;51820;48.374;10.930;2022-11-11T13:54:20;13.93;;;7.55;;
65234;SDS011;51820;48.374;10.930;2022-11-11T13:57:17;13.87;;;7.50;;
65234;SDS011;51820;48.374;10.930;2022-11-11T14:00:22;13.15;;;7.50;;
65234;SDS011;51820;48.374;10.930;2022-11-11T14:03:29;14.25;;;8.25;;
65234;SDS011;51820;48.374;10.930;2022-11-11T14:09:58;17.80;;;10.00;;
65234;SDS011;51820;48.374;10.930;2022-11-11T14:12:54;23.43;;;10.83;;
65234;SDS011;51820;48.374;10.930;2022-11-11T14:15:42;26.48;;;12.23;;
65234;SDS011;51820;48.374;10.930;2022-11-11T14:18:36;24.92;;;11.77;;
65234;SDS011;51820;48.374;10.930;2022-11-11T14:24:35;24.38;;;11.30;;
65234;SDS011;51820;48.374;10.930;2022-11-11T14:27:25;23.83;;;11.77;;
65234;SDS011;51820;48.374;10.930;2022-11-11T14:30:29;25.23;;;12.00;;
65234;SDS011;51820;48.374;10.930;2022-11-11T14:36:36;26.63;;;12.50;;
65234;SDS011;51820;48.374;10.930;2022-11-11T14:39:34;24.08;;;12.27;;
65234;SDS011;51820;48.374;10.930;2022-11-11T14:42:45;27.20;;;13.20;;
65234;SDS011;51820;48.374;10.930;2022-11-11T14:48:58;24.00;;;12.57;;
65234;SDS011;51820;48.374;10.930;2022-11-11T14:51:55;25.10;;;11.80;;
65234;SDS011;51820;48.374;10.930;2022-11-11T15:01:51;29.33;;;13.00;;
65234;SDS011;51820;48.374;10.930;2022-11-11T15:04:41;24.90;;;12.10;;
65234;SDS011;51820;48.374;10.930;2022-11-11T15:07:31;27.35;;;13.20;;
65234;SDS011;51820;48.374;10.930;2022-11-11T15:10:31;23.80;;;12.32;;
65234;SDS011;51820;48.374;10.930;2022-11-11T15:13:46;26.77;;;12.80;;
65234;SDS011;51820;48.374;10.930;2022-11-11T15:16:54;29.15;;;12.25;;
65234;SDS011;51820;48.374;10.930;2022-11-11T15:20:02;26.05;;;12.18;;
65234;SDS011;51820;48.374;10.930;2022-11-11T15:23:09;26.48;;;13.82;;
65234;SDS011;51820;48.374;10.930;2022-11-11T15:26:09;29.70;;;15.27;;
65234;SDS011;51820;48.374;10.930;2022-11-11T15:29:08;31.37;;;14.97;;
65234;SDS011;51820;48.374;10.930;2022-11-11T15:32:11;33.22;;;13.90;;
65234;SDS011;51820;48.374;10.930;2022-11-11T15:35:17;32.78;;;15.88;;
65234;SDS011;51820;48.374;10.930;2022-11-11T15:38:15;31.45;;;15.20;;
65234;SDS011;51820;48.374;10.930;2022-11-11T15:41:18;31.90;;;14.85;;
65234;SDS011;51820;48.374;10.930;2022-11-11T15:44:19;38.40;;;16.30;;
65234;SDS011;51820;48.374;10.930;2022-11-11T15:47:11;59.65;;;15.50;;
65234;SDS011;51820;48.374;10.930;2022-11-11T15:50:00;31.88;;;15.15;;
65234;SDS011;51820;48.374;10.930;2022-11-11T15:52:54;32.40;;;14.38;;
65234;SDS011;51820;48.374;10.930;2022-11-11T15:55:53;27.75;;;14.93;;
65234;SDS011;51820;48.374;10.930;2022-11-11T16:06:01;33.10;;;13.82;;
65234;SDS011;51820;48.374;10.930;2022-11-11T16:08:52;47.95;;;14.98;;
65234;SDS011;51820;48.374;10.930;2022-11-11T16:11:41;25.88;;;13.40;;
65234;SDS011;51820;48.374;10.930;2022-11-11T16:14:33;30.67;;;12.67;;
65234;SDS011;51820;48.374;10.930;2022-11-11T16:17:27;36.92;;;12.77;;
65234;SDS011;51820;48.374;10.930;2022-11-11T16:20:19;28.30;;;13.25;;
65234;SDS011;51820;48.374;10.930;2022-11-11T16:23:12;42.75;;;12.70;;
65234;SDS011;51820;48.374;10.930;2022-11-11T16:26:03;37.17;;;13.73;;
65234;SDS011;51820;48.374;10.930;2022-11-11T16:28:52;28.17;;;12.47;;
65234;SDS011;51820;48.374;10.930;2022-11-11T16:31:41;36.90;;;13.00;;
65234;SDS011;51820;48.374;10.930;2022-11-11T16:34:33;35.58;;;13.23;;
65234;SDS011;51820;48.374;10.930;2022-11-11T16:37:26;54.25;;;14.20;;
65234;SDS011;51820;48.374;10.930;2022-11-11T16:40:33;30.58;;;13.02;;
65234;SDS011;51820;48.374;10.930;2022-11-11T16:43:24;52.23;;;13.80;;
65234;SDS011;51820;48.374;10.930;2022-11-11T16:46:14;46.95;;;13.27;;
65234;SDS011;51820;48.374;10.930;2022-11-11T16:49:14;64.53;;;14.45;;
65234;SDS011;51820;48.374;10.930;2022-11-11T16:52:09;48.05;;;13.82;;
65234;SDS011;51820;48.374;10.930;2022-11-11T16:55:00;41.10;;;13.45;;
65234;SDS011;51820;48.374;10.930;2022-11-11T16:57:47;27.10;;;12.90;;
65234;SDS011;51820;48.374;10.930;2022-11-11T17:00:39;64.13;;;12.98;;
65234;SDS011;51820;48.374;10.930;2022-11-11T17:03:33;61.28;;;12.18;;
65234;SDS011;51820;48.374;10.930;2022-11-11T17:09:49;68.57;;;13.35;;
65234;SDS011;51820;48.374;10.930;2022-11-11T17:12:42;43.27;;;12.50;;
65234;SDS011;51820;48.374;10.930;2022-11-11T17:15:32;38.53;;;13.30;;
65234;SDS011;51820;48.374;10.930;2022-11-11T17:26:07;94.10;;;15.52;;
65234;SDS011;51820;48.374;10.930;2022-11-11T17:48:37;42.90;;;12.33;;
65234;SDS011;51820;48.374;10.930;2022-11-11T17:51:29;55.30;;;11.90;;
65234;SDS011;51820;48.374;10.930;2022-11-11T17:54:16;46.10;;;11.25;;
65234;SDS011;51820;48.374;10.930;2022-11-11T17:57:05;24.83;;;12.30;;
65234;SDS011;51820;48.374;10.930;2022-11-11T17:59:52;31.05;;;10.95;;
65234;SDS011;51820;48.374;10.930;2022-11-11T18:02:39;45.30;;;13.53;;
65234;SDS011;51820;48.374;10.930;2022-11-11T18:05:27;65.35;;;12.45;;
65234;SDS011;51820;48.374;10.930;2022-11-11T18:08:14;86.55;;;12.57;;
65234;SDS011;51820;48.374;10.930;2022-11-11T18:11:01;61.58;;;11.48;;
65234;SDS011;51820;48.374;10.930;2022-11-11T18:13:52;55.83;;;11.95;;
65234;SDS011;51820;48.374;10.930;2022-11-11T18:16:39;35.20;;;10.80;;